Buies Creek, NC

6:17 PM EDT on August 30, 2016 (GMT -0400)
Harnett County

Weather History for KHRJ - February, 2013

Change the Weather History Date:

Thursday, February 14, 2013

  Actual Average Record
Temperature  
Mean Temperature 41 °F -  
Max Temperature 50 °F 55 °F 77 °F (1989)
Min Temperature 32 °F 30 °F 12 °F (1968)
Degree Days  
Heating Degree Days 24    
Moisture  
Dew Point 33 °F    
Average Humidity 72    
Maximum Humidity 99    
Minimum Humidity 46    
Precipitation  
Precipitation 0.00 in - - ()
Sea Level Pressure  
Sea Level Pressure 30.01 in    
Wind  
Wind Speed 2 mph (West)    
Max Wind Speed 7 mph    
Max Gust Speed -    
Visibility 10 miles    
Events      
Averages and records for this station are not official NWS values.
T = Trace of Precipitation, MM = Missing Value Source: NWS Daily Summary

Daily Weather History Graph

Daily Weather History Graph

Search for Another Location

Airport or City:

Trip Planner

Search our weather history database for the weather conditions in past years. The results will help you decide how hot, cold, wet, or windy it might be!

Date:

Astronomy

Feb. 14, 2013 Rise Set
Actual Time 7:02 AM EST 5:56 PM EST
Civil Twilight 6:36 AM EST 6:22 PM EST
Nautical Twilight 6:06 AM EST 6:52 PM EST
Astronomical Twilight 5:36 AM EST 7:21 PM EST
Moon 9:15 AM EST (2/14) 10:44 PM EST (2/14)
Length of Visible Light 11h 46m
Length of Day
10h 54m
Waxing Crescent, 21% of the Moon is Illuminated
Feb 14
Waxing Crescent
Feb 17
First Quarter
Feb 25
Full
Mar 4
Last Quarter
Mar 11
New

Hourly Weather History & Observations

Time (EST) Temp. Windchill Dew Point Humidity Pressure Visibility Wind Dir Wind Speed Gust Speed Precip Events Conditions
12:15 AM 46.4 °F 42.9 °F 38.3 °F 73% 29.85 in 10.0 mi NW 6.9 mph - N/A   Clear
12:35 AM 45.5 °F 42.5 °F 37.9 °F 75% 29.85 in 10.0 mi NW 5.8 mph - N/A   Clear
12:55 AM 44.8 °F 41.6 °F 36.3 °F 72% 29.86 in 10.0 mi NW 5.8 mph - N/A   Clear
1:15 AM 44.1 °F - 35.6 °F 72% 29.87 in 10.0 mi Calm Calm - N/A   Clear
1:35 AM 43.3 °F 40.7 °F 34.7 °F 72% 29.87 in 10.0 mi WNW 4.6 mph - N/A   Clear
1:55 AM 42.8 °F - 34.2 °F 72% 29.88 in 10.0 mi Calm Calm - N/A   Clear
2:15 AM 41.4 °F - 34.0 °F 75% 29.89 in 10.0 mi Calm Calm - N/A   Clear
2:35 AM 40.5 °F 38.4 °F 34.0 °F 78% 29.89 in 10.0 mi NW 3.5 mph - N/A   Clear
2:55 AM 40.1 °F 36.9 °F 34.2 °F 79% 29.89 in 10.0 mi NW 4.6 mph - N/A   Clear
3:15 AM 40.1 °F - 33.8 °F 78% 29.90 in 10.0 mi Calm Calm - N/A   Clear
3:35 AM 39.9 °F - 33.8 °F 79% 29.91 in 10.0 mi Calm Calm - N/A   Clear
3:55 AM 39.4 °F - 34.2 °F 82% 29.92 in 10.0 mi Calm Calm - N/A   Clear
4:15 AM 39.2 °F - 33.8 °F 81% 29.93 in 10.0 mi Calm Calm - N/A   Clear
4:35 AM 38.1 °F - 33.4 °F 83% 29.94 in 10.0 mi Calm Calm - N/A   Clear
4:55 AM 37.0 °F - 34.0 °F 89% 29.95 in 10.0 mi Calm Calm - N/A   Clear
5:15 AM 36.7 °F - 34.7 °F 93% 29.96 in 10.0 mi Calm Calm - N/A   Clear
5:35 AM 35.8 °F - 34.5 °F 95% 29.96 in 10.0 mi Calm Calm - N/A   Clear
5:55 AM 35.6 °F - 34.7 °F 97% 29.97 in 10.0 mi Calm Calm - N/A   Clear
6:15 AM 35.6 °F - 34.2 °F 94% 29.98 in 10.0 mi Calm Calm - N/A   Clear
6:35 AM 34.5 °F - 33.3 °F 95% 29.98 in 10.0 mi Calm Calm - N/A   Clear
6:55 AM 34.5 °F - 33.4 °F 96% 30.00 in 10.0 mi Calm Calm - N/A   Clear
7:15 AM 32.9 °F - 32.2 °F 97% 30.00 in 10.0 mi Calm Calm - N/A   Clear
7:35 AM 32.9 °F - 32.2 °F 97% 30.00 in 10.0 mi Calm Calm - N/A   Clear
7:55 AM 34.2 °F 31.2 °F 33.8 °F 99% 30.01 in 10.0 mi NW 3.5 mph - N/A   Clear
8:15 AM 37.8 °F - 34.9 °F 89% 30.03 in 10.0 mi Calm Calm - N/A   Clear
8:35 AM 40.1 °F - 34.0 °F 79% 30.05 in 10.0 mi Calm Calm - N/A   Clear
8:55 AM 41.2 °F 38.2 °F 34.2 °F 76% 30.06 in 10.0 mi NW 4.6 mph - N/A   Clear
9:15 AM 42.1 °F - 34.2 °F 74% 30.05 in 10.0 mi Calm Calm - N/A   Clear
9:35 AM 42.8 °F 41.1 °F 33.8 °F 70% 30.04 in 10.0 mi North 3.5 mph - N/A   Clear
9:55 AM 43.7 °F - 32.5 °F 65% 30.04 in 10.0 mi Calm Calm - N/A   Clear
10:15 AM 45.0 °F - 32.5 °F 62% 30.06 in 10.0 mi Calm Calm - N/A   Clear
10:35 AM 45.3 °F - 31.8 °F 59% 30.06 in 10.0 mi Calm Calm - N/A   Clear
10:55 AM 46.8 °F - 30.9 °F 54% 30.07 in 10.0 mi North 4.6 mph - N/A   Clear
11:15 AM 47.8 °F - 30.4 °F 51% 30.06 in 10.0 mi NE 3.5 mph - N/A   Clear
11:35 AM 47.3 °F - 30.2 °F 52% 30.06 in 10.0 mi Calm Calm - N/A   Clear
11:55 AM 48.6 °F - 30.7 °F 50% 30.06 in 10.0 mi Calm Calm - N/A   Clear
12:15 PM 48.6 °F - 30.2 °F 49% 30.06 in 10.0 mi Calm Calm - N/A   Clear
12:35 PM 49.1 °F - 30.2 °F 48% 30.06 in 10.0 mi Calm Calm - N/A   Clear
12:55 PM 48.9 °F - 29.7 °F 47% 30.05 in 10.0 mi Calm Calm - N/A   Clear
1:15 PM 49.3 °F - 30.6 °F 49% 30.04 in 10.0 mi SE 4.6 mph - N/A   Clear
1:35 PM 49.8 °F - 31.5 °F 49% 30.03 in 10.0 mi SSW 4.6 mph - N/A   Clear
1:55 PM 49.3 °F - 31.1 °F 50% 30.02 in 10.0 mi SSE 3.5 mph - N/A   Clear
2:15 PM 50.2 °F - 31.8 °F 49% 30.02 in 10.0 mi South 5.8 mph - N/A   Clear
2:35 PM 50.0 °F - 31.3 °F 49% 30.01 in 10.0 mi South 3.5 mph - N/A   Clear
2:55 PM 50.0 °F - 31.1 °F 48% 30.02 in 10.0 mi WSW 3.5 mph - N/A   Clear
3:15 PM 50.2 °F - 31.1 °F 48% 30.02 in 10.0 mi WSW 4.6 mph - N/A   Clear
3:35 PM 50.2 °F - 30.9 °F 48% 30.02 in 10.0 mi Calm Calm - N/A   Clear
3:55 PM 50.5 °F - 30.2 °F 46% 30.01 in 10.0 mi Calm Calm - N/A   Clear
4:15 PM 50.7 °F - 30.7 °F 46% 30.01 in 10.0 mi Calm Calm - N/A   Clear
4:35 PM 50.2 °F - 31.3 °F 48% 30.02 in 10.0 mi WSW 3.5 mph - N/A   Clear
4:55 PM 50.2 °F - 32.2 °F 50% 30.02 in 10.0 mi South 3.5 mph - N/A   Clear
5:15 PM 49.1 °F - 35.1 °F 58% 30.02 in 10.0 mi Calm Calm - N/A   Clear
5:35 PM 48.6 °F - 34.0 °F 57% 30.02 in 10.0 mi Calm Calm - N/A   Clear
5:55 PM 46.9 °F - 34.9 °F 63% 30.02 in 10.0 mi Calm Calm - N/A   Clear
6:15 PM 46.6 °F - 33.8 °F 61% 30.02 in 10.0 mi Calm Calm - N/A   Clear
6:35 PM 45.3 °F - 34.7 °F 66% 30.02 in 10.0 mi Calm Calm - N/A   Clear
6:55 PM 44.6 °F - 33.8 °F 66% 30.04 in 10.0 mi Calm Calm - N/A   Clear
7:15 PM 43.2 °F - 35.2 °F 74% 30.04 in 10.0 mi Calm Calm - N/A   Clear
7:35 PM 41.7 °F - 35.8 °F 79% 30.05 in 10.0 mi Calm Calm - N/A   Clear
7:55 PM 42.6 °F 40.9 °F 34.7 °F 74% 30.05 in 10.0 mi SSE 3.5 mph - N/A   Clear
8:15 PM 42.1 °F 40.2 °F 35.1 °F 76% 30.07 in 10.0 mi South 3.5 mph - N/A   Clear
8:35 PM 41.9 °F - 34.9 °F 76% 30.07 in 10.0 mi Calm Calm - N/A   Clear
8:55 PM 42.3 °F - 34.7 °F 75% 30.07 in 10.0 mi Calm Calm - N/A   Clear
9:15 PM 41.0 °F - 35.2 °F 80% 30.06 in 10.0 mi Calm Calm - N/A   Clear
9:35 PM 40.1 °F - 35.2 °F 83% 30.08 in 10.0 mi Calm Calm - N/A   Clear
9:55 PM 38.1 °F - 36.5 °F 94% 30.08 in 10.0 mi Calm Calm - N/A   Clear
10:15 PM 37.0 °F - 35.6 °F 95% 30.08 in 10.0 mi Calm Calm - N/A   Clear
10:35 PM 36.7 °F - 35.6 °F 96% 30.08 in 10.0 mi Calm Calm - N/A   Clear
10:55 PM 36.0 °F - 34.3 °F 94% 30.08 in 10.0 mi Calm Calm - N/A   Clear
11:15 PM 35.8 °F - 34.7 °F 96% 30.08 in 10.0 mi Calm Calm - N/A   Clear
11:35 PM 34.3 °F - 33.4 °F 97% 30.08 in 10.0 mi Calm Calm - N/A   Clear
11:55 PM 34.7 °F - 33.8 °F 97% 30.08 in 10.0 mi Calm Calm - N/A   Clear